• Join FlightAware (Why Join?)
  • Login
  • US Flag 
01:47AM EDT


 

Airport Tracker/Info


-or-


 

Live Flight TrackerFlight Track Log ✈ SWA1075 ✈ 26-May-2013 ✈ KAUS - KMCO

Flight Track Log - Related Links

Times and Time Zones

All times are in EDT time to prevent confusion due to time zone crossing. See the SWA1075 flight status page for this flight to view local times or setup timezone preferences in your user account.

Time Position Orientation Groundspeed Altitude Reporting Facility
EDT Latitude Longitude Course Direction KTS MPH feet Rate Location/Type
12:26PM 30.0611 -97.6225 90° East 226 260 6,500  Level Houston Center
12:27PM 30.0250 -97.5625 125° Southeast 260 299 9,300 1,980 Climbing Houston Center
12:28PM 30.0756 -97.4792 55° Northeast 313 360 10,600 2,040 Climbing Houston Center
12:29PM 30.1397 -97.3881 51° Northeast 349 402 13,600 2,640 Climbing Houston Center
12:30PM 30.3375 -96.9793 99° East  Level FlightAware Approximate
12:30PM 30.2025 -97.2967 52° Northeast 359 413 16,100  Level Houston Center
12:31PM 30.3333 -96.8456 90° East  Level FlightAware Approximate
12:31PM 30.2675 -97.2025 51° Northeast 369 425 18,100  Level Houston Center
12:32PM 30.3350 -97.1047 51° Northeast 384 442 19,800 1,860 Climbing Houston Center
12:33PM 30.3469 -96.9775 84° East 400 460 22,000 1,800 Climbing Houston Center
12:34PM 30.3381 -96.8472 94° East 405 466 23,600 1,560 Climbing Houston Center
12:35PM 30.3306 -96.7122 94° East 416 479 25,300 1,380 Climbing Houston Center
12:36PM 30.3200 -96.5486 94° East 434 499 26,500 1,140 Climbing Houston Center
12:37PM 30.3111 -96.4053 94° East 443 510 27,700 960 Climbing Houston Center
12:38PM 30.3014 -96.2589 94° East 451 519 28,500 1,020 Climbing Houston Center
12:39PM 30.2925 -96.1103 94° East 459 528 29,900 1,320 Climbing Houston Center
12:40PM 30.2458 -95.9672 111° Southeast 450 518 31,300 1,140 Climbing Houston Center
12:41PM 30.1836 -95.8347 118° Southeast 467 537 32,300 900 Climbing Houston Center
12:42PM 30.1233 -95.7042 118° Southeast 463 533 33,200 780 Climbing Houston Center
12:43PM 30.0617 -95.5700 118° Southeast 468 539 34,000 840 Climbing Houston Center
12:44PM 30.0000 -95.4386 118° Southeast 466 536 35,000 480 Climbing Houston Center
12:45PM 29.9519 -95.3008 112° Southeast 466 536 35,000  Level Houston Center
12:46PM 29.9339 -95.1567 98° East 454 522 35,000  Level Houston Center
12:47PM 29.9161 -95.0108 98° East 455 524 35,000  Level Houston Center
12:48PM 29.8953 -94.8658 99° East 455 524 35,000  Level Houston Center
12:49PM 29.8725 -94.6933 99° East 454 522 35,000  Level Houston Center
12:50PM 29.8522 -94.5472 99° East 458 527 35,000  Level Houston Center
12:51PM 29.8331 -94.4039 99° East 456 525 35,000  Level Houston Center
12:52PM 29.8142 -94.2594 99° East 455 524 35,000  Level Houston Center
12:53PM 29.7933 -94.1181 100° East 455 524 35,000  Level Houston Center
12:54PM 29.7733 -93.9758 99° East 452 520 35,000  Level Houston Center
12:55PM 29.7542 -93.8333 99° East 454 522 35,000  Level Houston Center
12:56PM 29.7292 -93.6625 100° East 455 524 35,000  Level Houston Center
12:57PM 29.7086 -93.5194 99° East 455 524 35,000  Level Houston Center
12:59PM 29.6881 -93.3778 99° East 455 524 35,000  Level Houston Center
01:00PM 29.6678 -93.2361 99° East 452 520 35,000  Level Houston Center
01:01PM 29.6472 -93.0936 99° East 455 524 35,000  Level Houston Center
01:02PM 29.6272 -92.9525 99° East 451 519 35,000  Level Houston Center
01:03PM 29.6011 -92.7806 100° East 455 524 35,000  Level Houston Center
01:04PM 29.5803 -92.6392 100° East 452 520 35,000  Level Houston Center
01:05PM 29.5592 -92.4975 100° East 451 519 35,000  Level Houston Center
01:06PM 29.5378 -92.3539 100° East 457 526 35,000  Level Houston Center
01:07PM 29.5156 -92.2108 100° East 457 526 35,000  Level Houston Center
01:08PM 29.4933 -92.0689 100° East 456 525 35,000  Level Houston Center
01:09PM 29.4725 -91.9267 100° East 455 524 35,000  Level Houston Center
01:10PM 29.4450 -91.7553 100° East 455 524 35,000  Level Houston Center
01:11PM 29.4142 -91.6103 104° East 455 524 35,000  Level Houston Center
01:12PM 29.3836 -91.4694 104° East 456 525 35,000  Level Houston Center
01:13PM 29.3536 -91.3289 104° East 455 524 35,000  Level Houston Center
01:14PM 29.3231 -91.1881 104° East 457 526 35,000  Level Houston Center
01:15PM 29.2925 -91.0483 104° East 453 521 35,000  Level Houston Center
01:16PM 29.2619 -90.9089 104° East 453 521 35,000  Level Houston Center
01:17PM 29.2303 -90.7700 105° East 453 521 35,000  Level Houston Center
01:18PM 29.1936 -90.6031 104° East 453 521 35,000  Level Houston Center
01:19PM 29.1622 -90.4633 104° East 454 522 35,000  Level Houston Center
01:20PM 29.1308 -90.3247 105° East 453 521 35,000  Level Houston Center
01:21PM 29.0986 -90.1847 105° East 457 526 35,000  Level Houston Center
01:22PM 29.0675 -90.0444 104° East 457 526 35,000  Level Houston Center
01:23PM 29.0353 -89.9056 105° East 456 525 35,000  Level Houston Center
01:24PM 28.9972 -89.7381 105° East 457 526 35,000  Level Houston Center
01:25PM 28.9656 -89.6008 105° East 453 521 35,000  Level Houston Center
01:26PM 28.9325 -89.4572 105° East 463 533 35,000  Level Houston Center
01:27PM 28.9006 -89.3200 105° East 453 521 35,000  Level Houston Center
01:28PM 28.8686 -89.1792 104° East 459 528 35,000  Level Houston Center
01:29PM 28.8353 -89.0400 105° East 458 527 35,000  Level Houston Center
01:30PM 28.8011 -88.8978 105° East 465 535 35,000  Level Houston Center
01:31PM 28.7619 -88.7275 105° East 466 536 35,000  Level Houston Center
01:32PM 28.7286 -88.5861 105° East 465 535 35,000  Level Houston Center
01:33PM 28.6942 -88.4444 105° East 465 535 35,000  Level Houston Center
01:34PM 28.6603 -88.3022 105° East 468 539 35,000  Level Houston Center
01:35PM 28.6256 -88.1606 106° East 466 536 35,000  Level Houston Center
01:37PM 28.5894 -88.0064 105° East 468 539 35,000  Level Houston Center
01:38PM 28.5539 -87.8661 106° East 463 533 35,000  Level Houston Center
01:39PM 28.5200 -87.7242 105° East 465 535 35,000  Level Houston Center
01:40PM 28.4850 -87.5839 106° East 464 534 35,000  Level Houston Center
01:41PM 28.4503 -87.4433 106° East 463 533 35,000  Level Houston Center
01:42PM 28.4122 -87.2744 104° East 461 531 35,000  Level Houston Center
01:43PM 28.3850 -87.1319 102° East 462 532 35,000  Level Houston Center
01:43PM 28.3761 -87.0750 100° East 461 531 35,000  Level Jacksonville Center
01:44PM 28.3472 -86.9325 103° East 461 531 35,000  Level Jacksonville Center
01:45PM 28.3183 -86.7875 103° East 452 520 35,000  Level Jacksonville Center
01:46PM 28.2914 -86.6450 102° East 452 520 35,000  Level Jacksonville Center
01:47PM 28.2619 -86.5050 103° East 458 527 35,000  Level Jacksonville Center
01:48PM 28.2325 -86.3578 103° East 458 527 35,000  Level Jacksonville Center
01:49PM 28.2050 -86.2181 103° East 458 527 35,000  Level Jacksonville Center
01:50PM 28.1775 -86.0736 102° East 458 527 35,000  Level Jacksonville Center
01:51PM 28.1475 -85.9267 103° East 468 539 35,000  Level Jacksonville Center
01:52PM 28.1175 -85.7869 104° East 468 539 35,000  Level Jacksonville Center
01:53PM 28.0872 -85.6425 103° East 463 533 35,000  Level Jacksonville Center
01:55PM 28.0228 -85.3036 102° East 469 540 35,000  Level Miami Center
01:56PM 28.0044 -85.1544 98° East 464 534 35,000 -420 Level Miami Center
01:57PM 27.9964 -85.0081 94° East 469 540 34,200 -900 Descending Miami Center
01:58PM 27.9861 -84.8550 94° East 469 540 33,300 -900 Descending Miami Center
01:59PM 27.9736 -84.7036 95° East 469 540 32,400 -900 Descending Miami Center
02:00PM 27.9711 -84.5603 91° East 469 540 31,500 -720 Descending Miami Center
02:01PM 27.9547 -84.3972 96° East 491 565 31,000 -420 Descending Miami Center
02:02PM 27.9458 -84.2442 94° East 496 571 30,700 -840 Descending Miami Center
02:03PM 27.9350 -84.0886 94° East 496 571 29,400 -1,320 Descending Miami Center
02:04PM 27.9261 -83.9308 94° East 503 579 28,100 -1,380 Descending Miami Center
02:05PM 27.9108 -83.7747 96° East 503 579 26,700 -1,380 Descending Miami Center
02:06PM 27.9036 -83.6242 93° East 503 579 25,400 -1,260 Descending Miami Center
02:07PM 27.8961 -83.4689 93° East 498 573 24,200 -1,200 Descending Miami Center
02:08PM 27.8822 -83.3131 96° East 498 573 23,000 -1,200 Descending Miami Center
02:09PM 27.8722 -83.1672 94° East 484 557 21,900 -1,080 Descending Miami Center
02:10PM 27.8619 -83.0186 94° East 479 551 20,900 -480 Descending Miami Center
02:11PM 27.8511 -82.8772 95° East 467 537 21,000 -60 Climbing Miami Center
02:12PM 27.8425 -82.7361 94° East 467 537 20,800 -600 Descending Miami Center
02:13PM 27.8272 -82.5944 97° East 462 532 19,900 -960 Descending Miami Center
02:14PM 27.8408 -82.4592 83° East 448 516 18,900 -1,020 Descending Miami Center
02:15PM 27.8897 -82.3300 67° East 429 494 17,900 -1,320 Descending Miami Center
02:18PM 27.9833 -82.0333 70° East 412 474 14,700 -1,440 Descending Orlando TRACON
02:19PM 28.0333 -81.9167 64° Northeast 387 445 13,100 -780 Descending Orlando TRACON
02:20PM 28.1000 -81.8000 57° Northeast 376 433 13,100 -360 Level Orlando TRACON
02:21PM 28.1500 -81.7000 60° Northeast 381 438 12,400 -900 Descending Orlando TRACON
02:22PM 28.2000 -81.6167 56° Northeast 334 384 11,300 -1,200 Descending Orlando TRACON
02:23PM 28.2500 -81.5333 56° Northeast 301 346 10,100 -1,200 Descending Orlando TRACON
02:24PM 28.3000 -81.4667 50° Northeast 287 330 9,100 -720 Descending Orlando TRACON
02:25PM 28.3500 -81.4167 41° Northeast 242 278 8,800 -660 Descending Orlando TRACON
02:26PM 28.4167 -81.4167 360° North 232 267 7,800 -1,140 Descending Orlando TRACON
02:27PM 28.4833 -81.4167 360° North 227 261 6,600 -1,260 Descending Orlando TRACON
02:28PM 28.5333 -81.3833 30° Northeast 213 245 5,300 -1,380 Descending Orlando TRACON
02:29PM 28.5500 -81.3333 69° East 201 231 3,900 -1,200 Descending Orlando TRACON
02:30PM 28.5500 -81.2833 90° East 143 165 2,900 -1,020 Descending Orlando TRACON
02:31PM 28.5167 -81.2833 180° South 149 171 1,900 -1,020 Descending Orlando TRACON
02:32PM 28.4667 -81.3000 196° South 151 174 900 -1,020 Descending Orlando TRACON